createdAt,value
2023-03-11T00:01:51.637Z,0.02
2023-03-11T00:04:45.279Z,0.03
2023-03-11T00:12:02.315Z,0.04
2023-03-11T00:19:17.894Z,0.03
2023-03-11T00:23:39.553Z,0.04
2023-03-11T00:31:33.936Z,0.03
2023-03-11T00:56:10.331Z,0.02
2023-03-11T00:59:06.882Z,0.03
2023-03-11T01:11:21.128Z,0.02
2023-03-11T01:13:55.797Z,0.03
2023-03-11T01:21:17.697Z,0.02
2023-03-11T01:23:58.676Z,0.03
2023-03-11T01:47:24.054Z,0.02
2023-03-11T01:59:34.260Z,0.03
2023-03-11T02:04:52.658Z,0.02
2023-03-11T02:07:10.921Z,0.03
2023-03-11T02:34:42.957Z,0.02
2023-03-11T04:42:14.988Z,0.03
2023-03-11T04:50:14.991Z,0.02
2023-03-11T04:57:10.349Z,0.03
2023-03-11T05:02:00.115Z,0.04
2023-03-11T05:04:03.995Z,0.05
2023-03-11T05:06:56.111Z,0.06
2023-03-11T05:09:34.006Z,0.1
2023-03-11T05:11:57.960Z,0.14
2023-03-11T05:14:07.855Z,0.2
2023-03-11T05:17:05.874Z,0.34
2023-03-11T05:19:50.145Z,0.45
2023-03-11T05:22:20.248Z,0.56
2023-03-11T05:24:36.179Z,0.89
2023-03-11T05:26:38.337Z,1.46
2023-03-11T05:29:28.475Z,2.69
2023-03-11T05:32:04.706Z,3.82
2023-03-11T05:34:26.726Z,4.27
2023-03-11T05:36:34.845Z,4.89
2023-03-11T05:39:31.469Z,7.75
2023-03-11T05:42:13.904Z,13.64
2023-03-11T05:44:42.742Z,19.63
2023-03-11T05:46:56.573Z,27.22
2023-03-11T05:48:56.938Z,31.15
2023-03-11T05:51:45.577Z,46.22
2023-03-11T05:54:20.299Z,41.28
2023-03-11T05:56:40.826Z,36.04
2023-03-11T05:58:47.458Z,53.04
2023-03-11T06:01:42.339Z,82.72
2023-03-11T06:04:23.126Z,74.32
2023-03-11T06:06:49.411Z,102.4
2023-03-11T06:09:01.968Z,124.48
2023-03-11T06:11:00.344Z,140.96
2023-03-11T06:13:46.912Z,185.3
2023-03-11T06:16:19.674Z,223.5
2023-03-11T06:18:38.217Z,260.1
2023-03-11T06:20:42.751Z,283.9
2023-03-11T06:23:35.800Z,319.7
2023-03-11T06:26:14.614Z,333.1
2023-03-11T06:28:39.469Z,376
2023-03-11T06:30:50.469Z,440.3
2023-03-11T06:32:47.330Z,425.1
2023-03-11T06:35:32.457Z,414.2
2023-03-11T06:38:02.841Z,368.9
2023-03-11T06:40:19.835Z,363
2023-03-11T06:42:22.744Z,445.1
2023-03-11T06:45:13.931Z,512.4
2023-03-11T06:47:51.316Z,572.1
2023-03-11T06:50:14.396Z,590.4
2023-03-11T06:52:23.377Z,626.2
2023-03-11T06:55:20.706Z,700.8
2023-03-11T06:58:03.989Z,800.9
2023-03-11T07:00:32.995Z,858.2
2023-03-11T07:02:48.066Z,939.8
2023-03-11T07:04:49.268Z,1037.7
2023-03-11T07:07:38.654Z,991.6
2023-03-11T07:10:14.020Z,927.3
2023-03-11T07:12:35.416Z,938.8
2023-03-11T07:14:42.794Z,971.8
2023-03-11T07:17:38.380Z,1088.6
2023-03-11T07:20:20.277Z,1170.5
2023-03-11T07:22:47.641Z,1203.5
2023-03-11T07:25:00.958Z,1207.3
2023-03-11T07:27:00.607Z,1132.1
2023-03-11T07:29:47.852Z,1047
2023-03-11T07:32:21.470Z,1057.9
2023-03-11T07:34:41.196Z,1137.2
2023-03-11T07:36:46.437Z,1263
2023-03-11T07:39:40.138Z,1420.8
2023-03-11T07:42:19.711Z,1687
2023-03-11T07:44:45.280Z,1803
2023-03-11T07:46:56.793Z,1809
2023-03-11T07:48:54.446Z,1706
2023-03-11T07:51:40.430Z,1767
2023-03-11T07:54:12.427Z,1686
2023-03-11T07:56:30.363Z,1634.5
2023-03-11T07:58:34.324Z,1710
2023-03-11T08:01:26.353Z,1909
2023-03-11T08:04:04.327Z,1713
2023-03-11T08:06:28.184Z,1706
2023-03-11T08:08:38.132Z,1613.4
2023-03-11T08:11:36.269Z,1632.6
2023-03-11T08:14:20.329Z,1486
2023-03-11T08:16:50.567Z,1322.2
2023-03-11T08:19:06.615Z,1296.9
2023-03-11T08:21:08.266Z,1336.9
2023-03-11T08:23:58.565Z,1361.2
2023-03-11T08:26:34.844Z,1175.3
2023-03-11T08:28:57.038Z,1357.4
2023-03-11T08:31:05.487Z,1228.8
2023-03-11T08:34:02.066Z,1573.1
2023-03-11T08:36:45.637Z,1610.8
2023-03-11T08:39:13.067Z,1685
2023-03-11T08:41:27.393Z,1780
2023-03-11T08:43:27.711Z,1824
2023-03-11T08:46:16.310Z,2324
2023-03-11T08:48:51.024Z,2133
2023-03-11T08:51:11.454Z,2034
2023-03-11T08:53:17.816Z,1596.1
2023-03-11T08:56:12.566Z,1354.8
2023-03-11T08:58:53.329Z,1275.2
2023-03-11T09:01:19.658Z,1452.8
2023-03-11T09:03:32.175Z,1496.3
2023-03-11T09:05:30.774Z,1509.1
2023-03-11T09:08:17.569Z,1511
2023-03-11T09:10:50.205Z,1090.2
2023-03-11T09:13:08.611Z,953.2
2023-03-11T09:15:13.307Z,1025.2
2023-03-11T09:18:06.154Z,1388.1
2023-03-11T09:20:45.165Z,1289.6
2023-03-11T09:23:10.190Z,1117.4
2023-03-11T09:25:20.960Z,1243.8
2023-03-11T09:27:17.872Z,1532.8
2023-03-11T09:30:03.073Z,1630
2023-03-11T09:32:34.044Z,1366.4
2023-03-11T09:34:50.870Z,1282.8
2023-03-11T09:36:53.804Z,1256.9
2023-03-11T09:39:44.975Z,1436.1
2023-03-11T09:42:22.063Z,1117.7
2023-03-11T09:44:45.168Z,1546.2
2023-03-11T09:46:54.415Z,1133.7
2023-03-11T09:49:51.516Z,1273.6
2023-03-11T09:52:34.853Z,1932
2023-03-11T09:55:04.387Z,2474
2023-03-11T09:57:19.321Z,1827
2023-03-11T09:59:20.609Z,1861
2023-03-11T10:02:10.263Z,1736
2023-03-11T10:04:45.031Z,2101
2023-03-11T10:07:06.295Z,2053
2023-03-11T10:09:13.531Z,1765
2023-03-11T10:12:09.022Z,1523.2
2023-03-11T10:14:50.358Z,1426.5
2023-03-11T10:17:17.886Z,1262
2023-03-11T10:19:31.414Z,1188.4
2023-03-11T10:21:30.724Z,1188.1
2023-03-11T10:24:18.458Z,1266.8
2023-03-11T10:26:52.072Z,1477.1
2023-03-11T10:29:11.586Z,1966
2023-03-11T10:31:17.235Z,3421
2023-03-11T10:34:11.056Z,2121
2023-03-11T10:36:50.955Z,2429
2023-03-11T10:39:16.167Z,3208
2023-03-11T10:41:27.833Z,3215
2023-03-11T10:43:25.433Z,2000
2023-03-11T10:46:11.247Z,1628.1
2023-03-11T10:48:43.133Z,1564.1
2023-03-11T10:51:00.922Z,1465.6
2023-03-11T10:53:04.625Z,1462.4
2023-03-11T10:55:56.419Z,1528.3
2023-03-11T10:58:34.238Z,1758
2023-03-11T11:00:58.127Z,1870
2023-03-11T11:03:08.052Z,2010
2023-03-11T11:06:06.235Z,2039
2023-03-11T11:08:50.374Z,2096
2023-03-11T11:11:20.407Z,2103
2023-03-11T11:13:36.490Z,2096
2023-03-11T11:15:38.487Z,2138
2023-03-11T11:18:28.702Z,2234
2023-03-11T11:21:04.988Z,2209
2023-03-11T11:23:27.218Z,2227
2023-03-11T11:25:35.312Z,2337
2023-03-11T11:28:31.840Z,2438
2023-03-11T11:31:14.404Z,2437
2023-03-11T11:33:42.830Z,2221
2023-03-11T11:35:57.115Z,2031
2023-03-11T11:37:57.451Z,1947
2023-03-11T11:40:45.996Z,1699
2023-03-11T11:43:20.528Z,1513.6
2023-03-11T11:45:41.163Z,1452.8
2023-03-11T11:47:47.223Z,1606.4
2023-03-11T11:50:41.902Z,1681
2023-03-11T11:53:22.724Z,1761
2023-03-11T11:55:49.386Z,1905
2023-03-11T11:58:01.917Z,1953
2023-03-11T12:00:00.600Z,1955
2023-03-11T12:02:47.417Z,1888
2023-03-11T12:05:01.142Z,2119
2023-03-11T12:07:00.792Z,2201
2023-03-11T12:09:48.619Z,2419
2023-03-11T12:12:22.562Z,2339
2023-03-11T12:14:42.421Z,2330
2023-03-11T12:16:48.158Z,2301
2023-03-11T12:19:42.371Z,2151
2023-03-11T12:22:22.418Z,2050
2023-03-11T12:24:48.341Z,2010
2023-03-11T12:27:00.374Z,2062
2023-03-11T12:28:58.344Z,2001
2023-03-11T12:31:44.480Z,2188
2023-03-11T12:34:16.586Z,2436
2023-03-11T12:36:34.756Z,2395
2023-03-11T12:38:38.434Z,2721
2023-03-11T12:41:30.634Z,2366
2023-03-11T12:44:08.939Z,2641
2023-03-11T12:46:33.253Z,3128
2023-03-11T12:48:43.281Z,2807
2023-03-11T12:51:41.795Z,2951
2023-03-11T12:54:26.504Z,2769
2023-03-11T12:56:56.506Z,3121
2023-03-11T12:59:12.588Z,3299
2023-03-11T13:01:14.849Z,3075
2023-03-11T13:04:05.307Z,2326
2023-03-11T13:06:41.599Z,1916
2023-03-11T13:09:04.099Z,1752
2023-03-11T13:11:12.426Z,1607.6
2023-03-11T13:14:09.045Z,1519.3
2023-03-11T13:16:51.763Z,1409.9
2023-03-11T13:19:20.354Z,1508.4
2023-03-11T13:21:34.863Z,1761
2023-03-11T13:23:35.469Z,1776
2023-03-11T13:26:24.305Z,1218.2
2023-03-11T13:28:59.082Z,1287.3
2023-03-11T13:31:19.176Z,1152.9
2023-03-11T13:33:25.750Z,1050.8
2023-03-11T13:36:20.577Z,1231
2023-03-11T13:39:01.353Z,1740
2023-03-11T13:41:28.204Z,1800
2023-03-11T13:43:40.969Z,1744
2023-03-11T13:45:39.615Z,1678
2023-03-11T13:48:26.558Z,1649
2023-03-11T13:50:59.520Z,1962
2023-03-11T13:53:18.355Z,2367
2023-03-11T13:55:23.265Z,2373
2023-03-11T13:58:16.472Z,2280
2023-03-11T14:00:55.507Z,1895
2023-03-11T14:03:20.441Z,2056
2023-03-11T14:05:31.509Z,2083
2023-03-11T14:07:28.577Z,2085
2023-03-11T14:10:13.632Z,1917
2023-03-11T14:12:45.373Z,1861
2023-03-11T14:15:01.994Z,1958
2023-03-11T14:17:05.006Z,1975
2023-03-11T14:19:56.392Z,1911
2023-03-11T14:22:33.313Z,1865
2023-03-11T14:24:56.466Z,1906
2023-03-11T14:27:05.666Z,1891
2023-03-11T14:30:03.126Z,1742
2023-03-11T14:32:46.535Z,1599.3
2023-03-11T14:35:15.696Z,1507.8
2023-03-11T14:37:31.041Z,1536
2023-03-11T14:39:32.212Z,1604.4
2023-03-11T14:42:21.674Z,1756
2023-03-11T14:44:57.379Z,2492
2023-03-11T14:47:18.831Z,2497
2023-03-11T14:49:26.152Z,2147
2023-03-11T14:52:21.995Z,2592
2023-03-11T14:55:03.746Z,1956
2023-03-11T14:57:31.401Z,1728
2023-03-11T14:59:44.949Z,1591
2023-03-11T15:01:44.595Z,1594.8
2023-03-11T15:04:32.396Z,1662
2023-03-11T15:07:06.069Z,1835
2023-03-11T15:09:25.830Z,3851
2023-03-11T15:11:31.512Z,1721
2023-03-11T15:14:25.101Z,1843
2023-03-11T15:17:05.171Z,1764
2023-03-11T15:19:31.110Z,3042
2023-03-11T15:21:42.887Z,1861
2023-03-11T15:23:40.907Z,1735
2023-03-11T15:26:26.912Z,1762
2023-03-11T15:28:58.961Z,1707
2023-03-11T15:31:16.894Z,1789
2023-03-11T15:33:20.820Z,1588.4
2023-03-11T15:36:12.995Z,1485.4
2023-03-11T15:38:51.089Z,1250.2
2023-03-11T15:41:15.284Z,990
2023-03-11T15:43:25.318Z,1008
2023-03-11T15:46:23.611Z,1031
2023-03-11T15:49:08.045Z,1256.9
2023-03-11T15:51:38.372Z,918.4
2023-03-11T15:53:54.545Z,1144.6
2023-03-11T15:56:03.573Z,919
2023-03-11T15:58:47.343Z,782.4
2023-03-11T16:01:23.769Z,713.6
2023-03-11T16:03:46.101Z,689.9
2023-03-11T16:05:53.987Z,681.2
2023-03-11T16:08:50.623Z,655.6
2023-03-11T16:11:33.096Z,597.2
2023-03-11T16:14:01.656Z,558
2023-03-11T16:16:16.181Z,516.1
2023-03-11T16:18:16.440Z,495.2
2023-03-11T16:21:05.163Z,501.1
2023-03-11T16:23:50.929Z,477.7
2023-03-11T16:26:00.356Z,480.6
2023-03-11T16:28:07.077Z,494.5
2023-03-11T16:31:02.155Z,415.2
2023-03-11T16:33:42.829Z,395.3
2023-03-11T16:36:09.556Z,409.4
2023-03-11T16:38:22.255Z,474.7
2023-03-11T16:40:20.888Z,432.4
2023-03-11T16:43:07.763Z,455.6
2023-03-11T16:45:40.808Z,445.4
2023-03-11T16:47:59.717Z,416.3
2023-03-11T16:50:04.475Z,412.3
2023-03-11T16:52:57.741Z,342.5
2023-03-11T16:55:36.694Z,276.3
2023-03-11T16:58:01.243Z,260.3
2023-03-11T17:00:12.226Z,257.2
2023-03-11T17:02:09.123Z,234.4
2023-03-11T17:04:54.171Z,204.1
2023-03-11T17:07:25.220Z,172.4
2023-03-11T17:09:42.310Z,153.24
2023-03-11T17:11:45.272Z,137.56
2023-03-11T17:14:36.457Z,108.92
2023-03-11T17:17:13.795Z,86.84
2023-03-11T17:19:36.970Z,70.72
2023-03-11T17:21:46.077Z,58.22
2023-03-11T17:24:43.761Z,40.6
2023-03-11T17:27:27.229Z,29.61
2023-03-11T17:29:56.526Z,22.12
2023-03-11T17:32:11.724Z,16.81
2023-03-11T17:34:12.996Z,11.9
2023-03-11T17:37:02.591Z,8.24
2023-03-11T17:39:38.016Z,4.78
2023-03-11T17:41:59.584Z,3.1
2023-03-11T17:44:07.003Z,2.24
2023-03-11T17:47:02.803Z,1.34
2023-03-11T17:49:44.157Z,0.88
2023-03-11T17:52:11.739Z,0.56
2023-03-11T17:54:25.237Z,0.37
2023-03-11T17:56:26.956Z,0.28
2023-03-11T17:59:12.580Z,0.17
2023-03-11T18:01:46.361Z,0.12
2023-03-11T18:04:05.995Z,0.09
2023-03-11T18:06:11.667Z,0.07
2023-03-11T18:09:05.708Z,0.06
2023-03-11T18:11:45.574Z,0.04
2023-03-11T18:18:21.155Z,0.03
2023-03-11T18:38:05.884Z,0.02
2023-03-11T21:03:32.979Z,0.03
2023-03-11T21:06:12.523Z,0.02
2023-03-11T21:08:38.045Z,0.03
2023-03-11T21:12:47.099Z,0.02
2023-03-11T21:32:29.789Z,0.03
2023-03-11T21:35:27.666Z,0.02
2023-03-11T22:19:59.511Z,0.01
2023-03-11T23:00:56.857Z,0.02
2023-03-11T23:03:28.761Z,0.01
2023-03-11T23:35:51.697Z,0.02
2023-03-11T23:40:22.044Z,0.01
2023-03-11T23:43:18.398Z,0.03
2023-03-11T23:46:00.937Z,0.04
2023-03-11T23:48:29.214Z,0.01
2023-03-11T23:50:43.092Z,0.02
2023-03-11T23:52:43.811Z,0.04
2023-03-11T23:55:32.622Z,0.02
2023-03-11T23:58:07.138Z,0.03
